Time;durP1;ratioP1;P1;durP2;ratioP2;P2;SDS_P1;SDS_P2;PMS_P1;PMS_P2;Temp;Humidity;BMP_temperature;BMP_pressure;BME280_temperature;BME280_humidity;BME280_pressure;Samples;Min_cycle;Max_cycle;Signal;HPM_P1;HPM_P2
2023/06/06 00:01:34;;;;;;;;;;;12.20;73.20;;;;;;5002436;28;19940;-71
2023/06/06 00:04:01;;;;;;;;;;;12.30;73.50;;;;;;5003373;28;19929;-71
2023/06/06 00:06:32;;;;;;;;;;;12.20;74.10;;;;;;4990730;28;20306;-71
2023/06/06 00:08:59;;;;;;;;;;;12.20;73.80;;;;;;5018802;28;19934;-71
2023/06/06 00:11:28;;;;;;;;;;;12.10;72.30;;;;;;5004069;28;19929;-71
2023/06/06 00:13:56;;;;;;;;;;;12.10;73.10;;;;;;4999919;28;19930;-71
2023/06/06 00:16:27;;;;;;;;;;;12.10;72.60;;;;;;5001223;28;20593;-71
2023/06/06 00:18:55;;;;;;;;;;;12.00;72.30;;;;;;5001328;28;20231;-71
2023/06/06 00:21:22;;;;;;;;;;;12.00;73.90;;;;;;5005184;28;20437;-71
2023/06/06 00:23:49;;;;;;;;;;;12.00;74.10;;;;;;5020368;28;19937;-71
2023/06/06 00:26:16;;;;;;;;;;;12.00;74.40;;;;;;5020366;28;19926;-70
2023/06/06 00:28:42;;;;;;;;;;;11.90;74.30;;;;;;5003867;28;19933;-70
2023/06/06 00:31:09;;;;;;;;;;;11.90;73.60;;;;;;5005595;28;20031;-71
2023/06/06 00:33:36;;;;;;;;;;;11.80;73.40;;;;;;5001964;28;19933;-71
2023/06/06 00:36:03;;;;;;;;;;;11.70;73.00;;;;;;5003440;28;20026;-70
2023/06/06 00:38:30;;;;;;;;;;;11.70;74.10;;;;;;5003824;28;20716;-71
2023/06/06 00:40:57;;;;;;;;;;;11.60;73.40;;;;;;5003378;28;19996;-71
2023/06/06 00:43:24;;;;;;;;;;;11.50;74.70;;;;;;5018439;28;20402;-71
2023/06/06 00:45:51;;;;;;;;;;;11.50;74.70;;;;;;5013070;28;20652;-71
2023/06/06 00:48:18;;;;;;;;;;;11.40;74.40;;;;;;4995254;28;20389;-71
2023/06/06 00:50:47;;;;;;;;;;;11.40;75.10;;;;;;5019505;28;19929;-71
2023/06/06 00:53:14;;;;;;;;;;;11.30;74.60;;;;;;5002684;28;19933;-70
2023/06/06 00:55:41;;;;;;;;;;;11.30;75.70;;;;;;5015664;28;19929;-71
2023/06/06 00:58:09;;;;;;;;;;;11.30;76.90;;;;;;5001263;28;20059;-70
2023/06/06 01:00:37;;;;;;;;;;;11.30;76.70;;;;;;5001605;28;19936;-71
2023/06/06 01:03:04;;;;;;;;;;;11.30;75.70;;;;;;5002613;28;20547;-70
2023/06/06 01:05:31;;;;;;;;;;;11.20;76.20;;;;;;5000087;28;20286;-70
2023/06/06 01:07:58;;;;;;;;;;;11.20;74.90;;;;;;5002226;28;19995;-71
2023/06/06 01:10:25;;;;;;;;;;;11.20;75.30;;;;;;5001766;28;19960;-70
2023/06/06 01:12:59;;;;;;;;;;;11.20;76.60;;;;;;5003900;28;20096;-70
2023/06/06 01:15:32;;;;;;;;;;;11.20;75.90;;;;;;5003193;28;20007;-70
2023/06/06 01:18:01;;;;;;;;;;;11.20;77.20;;;;;;5000269;28;19934;-71
2023/06/06 01:20:29;;;;;;;;;;;11.10;76.20;;;;;;5001981;28;19965;-70
2023/06/06 01:22:57;;;;;;;;;;;11.10;77.30;;;;;;5004745;28;20014;-71
2023/06/06 01:25:25;;;;;;;;;;;11.10;77.90;;;;;;5002642;28;20052;-71
2023/06/06 01:27:53;;;;;;;;;;;11.10;78.60;;;;;;5019102;28;20019;-71
2023/06/06 01:30:21;;;;;;;;;;;11.00;78.50;;;;;;4999744;28;19941;-70
2023/06/06 01:33:09;;;;;;;;;;;10.90;76.80;;;;;;4994366;28;19934;-71
2023/06/06 01:35:50;;;;;;;;;;;10.80;77.40;;;;;;4994872;28;20017;-71
2023/06/06 01:38:20;;;;;;;;;;;10.70;76.90;;;;;;5004135;28;20010;-71
2023/06/06 01:40:49;;;;;;;;;;;10.70;77.00;;;;;;5002497;28;20437;-70
2023/06/06 01:43:18;;;;;;;;;;;10.60;76.60;;;;;;5001525;28;20044;-71
2023/06/06 01:45:46;;;;;;;;;;;10.50;77.00;;;;;;5002121;28;19929;-70
2023/06/06 01:48:13;;;;;;;;;;;10.50;77.10;;;;;;5000826;28;19937;-70
2023/06/06 01:50:40;;;;;;;;;;;10.40;77.90;;;;;;4997524;28;19930;-70
2023/06/06 01:53:07;;;;;;;;;;;10.40;78.60;;;;;;4992242;28;19933;-71
2023/06/06 01:55:36;;;;;;;;;;;10.30;78.50;;;;;;4998021;28;19965;-70
2023/06/06 01:58:04;;;;;;;;;;;10.30;78.90;;;;;;5002391;28;19940;-70
2023/06/06 02:00:31;;;;;;;;;;;10.30;78.50;;;;;;5002300;28;19935;-70
2023/06/06 02:02:58;;;;;;;;;;;10.20;77.90;;;;;;4993572;28;20722;-70
2023/06/06 02:05:25;;;;;;;;;;;10.20;78.10;;;;;;4997735;28;19929;-70
2023/06/06 02:07:52;;;;;;;;;;;10.10;79.50;;;;;;5010863;28;19985;-70
2023/06/06 02:10:21;;;;;;;;;;;10.10;78.90;;;;;;5005470;28;19930;-76
2023/06/06 02:12:48;;;;;;;;;;;10.10;80.40;;;;;;5015199;28;19933;-76
2023/06/06 02:15:15;;;;;;;;;;;10.10;81.00;;;;;;5004059;28;20386;-75
2023/06/06 02:17:42;;;;;;;;;;;10.00;79.80;;;;;;4996943;28;20008;-76
2023/06/06 02:20:10;;;;;;;;;;;10.00;81.20;;;;;;5001203;28;20374;-76
2023/06/06 02:22:38;;;;;;;;;;;9.90;79.30;;;;;;5002407;28;20024;-75
2023/06/06 02:25:05;;;;;;;;;;;9.90;78.90;;;;;;4999645;28;19941;-76
2023/06/06 02:27:35;;;;;;;;;;;9.80;79.50;;;;;;4999320;28;19930;-75
2023/06/06 02:30:07;;;;;;;;;;;9.80;81.80;;;;;;5009007;28;20028;-75
2023/06/06 02:32:34;;;;;;;;;;;9.80;80.90;;;;;;5004258;28;19941;-75
2023/06/06 02:35:03;;;;;;;;;;;9.90;81.50;;;;;;5007573;28;19936;-75
2023/06/06 02:37:30;;;;;;;;;;;9.80;82.20;;;;;;5006867;28;19929;-75
2023/06/06 02:39:57;;;;;;;;;;;9.90;82.10;;;;;;5006123;28;19934;-75
2023/06/06 02:42:23;;;;;;;;;;;9.80;81.40;;;;;;5007317;28;20020;-75
2023/06/06 02:44:50;;;;;;;;;;;9.90;81.20;;;;;;4996616;28;19934;-75
2023/06/06 02:47:17;;;;;;;;;;;9.90;80.10;;;;;;5001672;28;20020;-75
2023/06/06 02:49:45;;;;;;;;;;;9.80;79.80;;;;;;4993013;28;19930;-75
2023/06/06 02:52:11;;;;;;;;;;;9.80;80.60;;;;;;5000386;28;19935;-75
2023/06/06 02:54:40;;;;;;;;;;;9.80;80.40;;;;;;5007178;28;20023;-75
2023/06/06 02:57:06;;;;;;;;;;;9.70;79.70;;;;;;5009096;28;20606;-75
2023/06/06 02:59:33;;;;;;;;;;;9.70;81.00;;;;;;5018368;28;20016;-75
2023/06/06 03:02:01;;;;;;;;;;;9.70;81.10;;;;;;5008263;28;19929;-75
2023/06/06 03:04:27;;;;;;;;;;;9.80;81.90;;;;;;5000008;28;19930;-75
2023/06/06 03:06:55;;;;;;;;;;;9.70;82.00;;;;;;5006564;28;19933;-75
2023/06/06 03:09:22;;;;;;;;;;;9.70;83.20;;;;;;5005961;28;20019;-75
2023/06/06 03:11:48;;;;;;;;;;;9.70;82.60;;;;;;5023547;28;20751;-75
2023/06/06 03:14:16;;;;;;;;;;;9.70;82.40;;;;;;5023232;28;19929;-74
2023/06/06 03:16:43;;;;;;;;;;;9.60;81.60;;;;;;5009550;28;19936;-75
2023/06/06 03:19:11;;;;;;;;;;;9.60;82.30;;;;;;5009053;28;19934;-75
2023/06/06 03:21:38;;;;;;;;;;;9.60;80.80;;;;;;5008954;28;19929;-75
2023/06/06 03:24:05;;;;;;;;;;;9.60;82.30;;;;;;5019153;28;19929;-75
2023/06/06 03:26:32;;;;;;;;;;;9.60;82.50;;;;;;5007712;28;19929;-76
2023/06/06 03:28:59;;;;;;;;;;;9.60;82.60;;;;;;4998636;28;20301;-75
2023/06/06 03:31:29;;;;;;;;;;;9.60;82.40;;;;;;5007354;28;20358;-75
2023/06/06 03:33:56;;;;;;;;;;;9.70;83.20;;;;;;5006623;28;20458;-75
2023/06/06 03:36:23;;;;;;;;;;;9.70;84.10;;;;;;5022797;28;19972;-75
2023/06/06 03:38:49;;;;;;;;;;;9.70;83.70;;;;;;5006905;28;20020;-75
2023/06/06 03:41:16;;;;;;;;;;;9.70;84.60;;;;;;5001148;28;19933;-75
2023/06/06 03:43:43;;;;;;;;;;;9.70;84.10;;;;;;5020451;28;19929;-75
2023/06/06 03:46:10;;;;;;;;;;;9.70;83.10;;;;;;5022233;28;19929;-76
2023/06/06 03:48:36;;;;;;;;;;;9.60;82.90;;;;;;5007841;28;19930;-75
2023/06/06 03:51:03;;;;;;;;;;;9.70;83.00;;;;;;5001100;28;20533;-75
2023/06/06 03:53:30;;;;;;;;;;;9.70;83.90;;;;;;5008950;28;20779;-75
2023/06/06 03:55:58;;;;;;;;;;;9.80;82.90;;;;;;5010154;28;20305;-75
2023/06/06 03:58:25;;;;;;;;;;;9.80;83.80;;;;;;5004981;28;19933;-76
2023/06/06 04:00:52;;;;;;;;;;;9.80;83.30;;;;;;5001097;28;19930;-75
2023/06/06 04:03:20;;;;;;;;;;;9.90;83.40;;;;;;5007118;28;19930;-75
2023/06/06 04:05:48;;;;;;;;;;;9.90;83.50;;;;;;5005547;28;19933;-75
2023/06/06 04:08:15;;;;;;;;;;;9.90;82.50;;;;;;5006399;28;19965;-74
2023/06/06 04:10:42;;;;;;;;;;;9.90;83.50;;;;;;5007093;28;19961;-75
2023/06/06 04:13:09;;;;;;;;;;;9.90;83.60;;;;;;5003815;28;20012;-75
2023/06/06 04:15:35;;;;;;;;;;;10.00;82.90;;;;;;5006964;28;19960;-75
2023/06/06 04:18:03;;;;;;;;;;;10.00;83.60;;;;;;5006371;28;20075;-76
2023/06/06 04:20:32;;;;;;;;;;;10.10;84.70;;;;;;5004020;28;19929;-75
2023/06/06 04:23:02;;;;;;;;;;;10.20;84.90;;;;;;5008288;28;20015;-76
2023/06/06 04:25:29;;;;;;;;;;;10.20;84.20;;;;;;5004183;28;20161;-75
2023/06/06 04:27:56;;;;;;;;;;;10.20;84.40;;;;;;5009414;28;20028;-75
2023/06/06 04:30:23;;;;;;;;;;;10.30;84.60;;;;;;5019302;28;20043;-75
2023/06/06 04:32:51;;;;;;;;;;;10.30;84.50;;;;;;5003041;28;19925;-75
2023/06/06 04:35:18;;;;;;;;;;;10.30;84.80;;;;;;5017640;28;19937;-75
2023/06/06 04:37:47;;;;;;;;;;;10.30;85.00;;;;;;4998797;28;19925;-75
2023/06/06 04:40:15;;;;;;;;;;;10.40;86.20;;;;;;5004114;28;19929;-75
2023/06/06 04:42:42;;;;;;;;;;;10.50;86.20;;;;;;5004176;28;19933;-75
2023/06/06 04:45:09;;;;;;;;;;;10.50;85.90;;;;;;5002744;28;19929;-75
2023/06/06 04:47:38;;;;;;;;;;;10.60;85.90;;;;;;5008466;28;19933;-73
2023/06/06 04:50:06;;;;;;;;;;;10.70;86.10;;;;;;5001381;28;20012;-75
2023/06/06 04:52:33;;;;;;;;;;;10.80;86.00;;;;;;5005269;28;20015;-75
2023/06/06 04:55:03;;;;;;;;;;;10.80;85.50;;;;;;5003061;28;19926;-75
2023/06/06 04:57:29;;;;;;;;;;;10.90;85.70;;;;;;5006164;28;19929;-76
2023/06/06 04:59:56;;;;;;;;;;;11.00;85.70;;;;;;5005387;28;20658;-76
2023/06/06 05:02:28;;;;;;;;;;;11.10;85.40;;;;;;5025112;28;20096;-77
2023/06/06 05:04:56;;;;;;;;;;;11.20;85.50;;;;;;5007051;28;20698;-77
2023/06/06 05:07:24;;;;;;;;;;;11.30;84.30;;;;;;5003701;28;19973;-75
2023/06/06 05:09:51;;;;;;;;;;;11.40;84.50;;;;;;5007803;28;19930;-76
2023/06/06 05:12:18;;;;;;;;;;;11.50;84.70;;;;;;5006545;28;20417;-76
2023/06/06 05:14:45;;;;;;;;;;;11.60;84.80;;;;;;5009903;28;19929;-77
2023/06/06 05:17:20;;;;;;;;;;;11.60;84.20;;;;;;5005558;28;19988;-74
2023/06/06 05:19:47;;;;;;;;;;;11.70;84.90;;;;;;4999538;28;19929;-78
2023/06/06 05:22:14;;;;;;;;;;;11.80;84.50;;;;;;5006291;28;19929;-79
2023/06/06 05:24:42;;;;;;;;;;;11.90;84.70;;;;;;5008767;28;19975;-78
2023/06/06 05:27:08;;;;;;;;;;;12.00;84.20;;;;;;5009953;28;20324;-83
2023/06/06 05:29:35;;;;;;;;;;;12.10;84.30;;;;;;5008785;28;19940;-78
2023/06/06 05:32:02;;;;;;;;;;;12.20;83.80;;;;;;5013280;28;19931;-79
2023/06/06 05:34:30;;;;;;;;;;;12.30;83.50;;;;;;5004097;28;19925;-76
2023/06/06 05:36:57;;;;;;;;;;;12.40;84.30;;;;;;5006039;28;19925;-78
2023/06/06 05:39:24;;;;;;;;;;;12.60;84.10;;;;;;5003119;28;20632;-77
2023/06/06 05:41:54;;;;;;;;;;;12.70;83.30;;;;;;5007356;28;20335;-75
2023/06/06 05:44:24;;;;;;;;;;;12.90;83.70;;;;;;5020551;28;19961;-74
2023/06/06 05:46:55;;;;;;;;;;;13.10;84.10;;;;;;5013506;28;19980;-73
2023/06/06 05:49:23;;;;;;;;;;;13.20;83.60;;;;;;5004367;28;19936;-73
2023/06/06 05:51:50;;;;;;;;;;;13.50;83.40;;;;;;5002555;28;19936;-73
2023/06/06 05:54:17;;;;;;;;;;;13.60;83.30;;;;;;4991003;28;19957;-74
2023/06/06 05:56:44;;;;;;;;;;;13.70;81.20;;;;;;5000462;28;19940;-76
2023/06/06 05:59:11;;;;;;;;;;;13.90;82.30;;;;;;5019119;28;19933;-75
2023/06/06 06:01:39;;;;;;;;;;;14.10;80.90;;;;;;5003871;28;19936;-75
2023/06/06 06:04:07;;;;;;;;;;;14.30;79.50;;;;;;5002473;28;19930;-74
2023/06/06 06:06:35;;;;;;;;;;;14.60;79.50;;;;;;5000301;28;20319;-76
2023/06/06 06:09:03;;;;;;;;;;;14.80;79.10;;;;;;5020407;28;19929;-75
2023/06/06 06:11:30;;;;;;;;;;;15.10;78.80;;;;;;5006710;28;20326;-74
2023/06/06 06:13:58;;;;;;;;;;;15.40;76.90;;;;;;4998355;28;20019;-76
2023/06/06 06:16:24;;;;;;;;;;;15.70;75.80;;;;;;5006426;28;19930;-75
2023/06/06 06:18:51;;;;;;;;;;;16.00;74.20;;;;;;5000488;28;19933;-75
2023/06/06 06:21:19;;;;;;;;;;;16.40;72.00;;;;;;5010285;28;19959;-74
2023/06/06 06:23:48;;;;;;;;;;;16.70;72.40;;;;;;5012380;28;19929;-76
2023/06/06 06:26:15;;;;;;;;;;;17.00;70.50;;;;;;5011292;28;19930;-77
2023/06/06 06:28:42;;;;;;;;;;;17.40;67.80;;;;;;5003783;28;19987;-77
2023/06/06 06:31:09;;;;;;;;;;;17.60;67.90;;;;;;5005530;28;19947;-76
2023/06/06 06:33:36;;;;;;;;;;;18.00;69.00;;;;;;5002864;28;19934;-76
2023/06/06 06:36:03;;;;;;;;;;;18.30;66.10;;;;;;5003979;28;20351;-75
2023/06/06 06:38:30;;;;;;;;;;;18.60;65.70;;;;;;5003763;28;19979;-75
2023/06/06 06:40:57;;;;;;;;;;;18.90;65.30;;;;;;5004087;28;19925;-76
2023/06/06 06:43:24;;;;;;;;;;;19.20;63.60;;;;;;5023712;28;19929;-75
2023/06/06 06:45:50;;;;;;;;;;;19.50;62.60;;;;;;5003783;28;19930;-75
2023/06/06 06:48:17;;;;;;;;;;;19.70;62.10;;;;;;5002559;28;19933;-76
2023/06/06 06:50:45;;;;;;;;;;;20.00;61.10;;;;;;5007732;28;19965;-76
2023/06/06 06:53:13;;;;;;;;;;;20.20;60.30;;;;;;4999844;28;20663;-76
2023/06/06 06:55:41;;;;;;;;;;;20.40;56.90;;;;;;5004808;28;19930;-76
2023/06/06 06:58:08;;;;;;;;;;;20.40;58.30;;;;;;4995536;28;20040;-76
2023/06/06 07:00:34;;;;;;;;;;;20.80;56.10;;;;;;5000120;28;19933;-76
2023/06/06 07:03:03;;;;;;;;;;;21.20;54.30;;;;;;5004825;28;19930;-76
2023/06/06 07:05:31;;;;;;;;;;;21.30;53.80;;;;;;5003812;28;19937;-77
2023/06/06 07:07:59;;;;;;;;;;;21.30;54.30;;;;;;5004688;28;19952;-77
2023/06/06 07:10:28;;;;;;;;;;;21.70;53.50;;;;;;5018903;28;19980;-76
2023/06/06 07:12:56;;;;;;;;;;;21.80;52.50;;;;;;5003233;28;19940;-75
2023/06/06 07:15:22;;;;;;;;;;;21.90;50.70;;;;;;4999196;28;20667;-77
2023/06/06 07:17:50;;;;;;;;;;;22.10;51.70;;;;;;5007126;28;19984;-77
2023/06/06 07:20:21;;;;;;;;;;;22.50;52.90;;;;;;5006926;28;20047;-77
2023/06/06 07:22:49;;;;;;;;;;;22.90;50.60;;;;;;5005557;28;20409;-77
2023/06/06 07:25:16;;;;;;;;;;;23.40;50.20;;;;;;5005306;28;20135;-77
2023/06/06 07:27:43;;;;;;;;;;;23.60;49.10;;;;;;5021488;28;19972;-77
2023/06/06 07:30:13;;;;;;;;;;;23.80;48.90;;;;;;5000544;28;19930;-77
2023/06/06 07:32:43;;;;;;;;;;;24.10;47.50;;;;;;4994608;28;20448;-77
2023/06/06 07:35:11;;;;;;;;;;;24.30;46.80;;;;;;5002655;28;20609;-77
2023/06/06 07:37:38;;;;;;;;;;;24.50;45.90;;;;;;5017057;28;20503;-76
2023/06/06 07:40:07;;;;;;;;;;;24.70;45.70;;;;;;5002586;28;19979;-77
2023/06/06 07:42:39;;;;;;;;;;;25.00;45.80;;;;;;5014560;28;19929;-77
2023/06/06 07:45:06;;;;;;;;;;;25.20;42.70;;;;;;5002082;28;19936;-77
2023/06/06 07:47:33;;;;;;;;;;;25.60;42.80;;;;;;5002158;28;20016;-76
2023/06/06 07:49:59;;;;;;;;;;;25.90;42.50;;;;;;5000505;28;19952;-76
2023/06/06 07:52:26;;;;;;;;;;;25.70;42.00;;;;;;4994866;28;20385;-75
2023/06/06 07:54:53;;;;;;;;;;;26.00;41.40;;;;;;4998987;28;20059;-75
2023/06/06 07:57:20;;;;;;;;;;;26.00;41.10;;;;;;5004789;28;19933;-76
2023/06/06 07:59:46;;;;;;;;;;;26.50;41.50;;;;;;5005399;28;19929;-76
2023/06/06 08:02:14;;;;;;;;;;;26.30;40.10;;;;;;5003080;28;19937;-79
2023/06/06 08:04:45;;;;;;;;;;;25.90;41.80;;;;;;5005178;28;20052;-78
2023/06/06 08:07:13;;;;;;;;;;;26.60;41.10;;;;;;5013356;28;19930;-76
2023/06/06 08:09:43;;;;;;;;;;;26.80;40.40;;;;;;5004275;28;19980;-82
2023/06/06 08:12:11;;;;;;;;;;;26.10;40.00;;;;;;5005431;28;20337;-76
2023/06/06 08:14:38;;;;;;;;;;;26.40;41.20;;;;;;5012283;28;19929;-76
2023/06/06 08:17:05;;;;;;;;;;;26.90;41.40;;;;;;5001105;28;20281;-76
2023/06/06 08:19:33;;;;;;;;;;;27.10;41.20;;;;;;5004320;28;19933;-76
2023/06/06 08:22:01;;;;;;;;;;;27.30;41.80;;;;;;4993187;28;20000;-74
2023/06/06 08:24:28;;;;;;;;;;;26.90;40.30;;;;;;5023746;23;20846;-70
2023/06/06 08:26:56;;;;;;;;;;;27.00;41.60;;;;;;5024390;28;19936;-70
2023/06/06 08:29:23;;;;;;;;;;;27.00;42.30;;;;;;5023274;28;20807;-70
2023/06/06 08:31:50;;;;;;;;;;;27.30;40.10;;;;;;5022288;28;20090;-70
2023/06/06 08:34:17;;;;;;;;;;;27.10;39.70;;;;;;5024628;28;19933;-70
2023/06/06 08:36:44;;;;;;;;;;;27.00;42.00;;;;;;5024555;28;19936;-70
2023/06/06 08:39:11;;;;;;;;;;;26.90;40.40;;;;;;5022838;28;19972;-70
2023/06/06 08:41:38;;;;;;;;;;;26.90;42.20;;;;;;5024220;28;19929;-70
2023/06/06 08:44:05;;;;;;;;;;;27.10;41.10;;;;;;5025121;28;19929;-69
2023/06/06 08:46:34;;;;;;;;;;;27.30;39.70;;;;;;5022941;28;19933;-70
2023/06/06 08:49:04;;;;;;;;;;;27.20;40.30;;;;;;5024525;28;19929;-70
2023/06/06 08:51:31;;;;;;;;;;;27.70;41.10;;;;;;5024337;28;19928;-70
2023/06/06 08:53:59;;;;;;;;;;;28.00;40.80;;;;;;5022631;28;20050;-70
2023/06/06 08:56:26;;;;;;;;;;;27.60;39.50;;;;;;5024094;28;19960;-70
2023/06/06 08:58:53;;;;;;;;;;;28.10;39.80;;;;;;5022355;28;19964;-70
2023/06/06 09:01:21;;;;;;;;;;;28.40;39.90;;;;;;5024286;28;19925;-70
2023/06/06 09:03:48;;;;;;;;;;;28.60;40.10;;;;;;5023124;28;20507;-70
2023/06/06 09:06:18;;;;;;;;;;;28.20;39.60;;;;;;5022192;28;19972;-70
2023/06/06 09:08:46;;;;;;;;;;;28.10;40.20;;;;;;5020824;28;20296;-70
2023/06/06 09:11:16;;;;;;;;;;;28.60;39.30;;;;;;5023452;28;20014;-70
2023/06/06 09:13:44;;;;;;;;;;;28.90;40.50;;;;;;5024175;28;19929;-70
2023/06/06 09:16:12;;;;;;;;;;;28.90;39.40;;;;;;5024198;28;20035;-70
2023/06/06 09:18:41;;;;;;;;;;;28.90;39.00;;;;;;5021041;28;19952;-70
2023/06/06 09:21:08;;;;;;;;;;;28.80;37.70;;;;;;5021617;28;20044;-70
2023/06/06 09:23:35;;;;;;;;;;;28.90;39.30;;;;;;5022994;28;19931;-70
2023/06/06 09:26:02;;;;;;;;;;;29.30;38.30;;;;;;5024146;28;19929;-70
2023/06/06 09:28:37;;;;;;;;;;;28.90;37.90;;;;;;5023472;28;20381;-70
2023/06/06 09:31:23;;;;;;;;;;;29.10;38.70;;;;;;5022687;28;19929;-71
2023/06/06 09:33:54;;;;;;;;;;;29.50;38.30;;;;;;5018758;28;19925;-70
2023/06/06 09:36:22;;;;;;;;;;;29.50;38.70;;;;;;5022921;28;19929;-71
2023/06/06 09:38:51;;;;;;;;;;;29.70;37.70;;;;;;5015003;28;20363;-70
2023/06/06 09:41:18;;;;;;;;;;;29.00;37.20;;;;;;5023448;28;19929;-70
2023/06/06 09:43:47;;;;;;;;;;;28.90;34.90;;;;;;5022953;28;19975;-70
2023/06/06 09:46:14;;;;;;;;;;;28.80;36.10;;;;;;5023633;28;19929;-70
2023/06/06 09:48:42;;;;;;;;;;;29.40;37.80;;;;;;5019143;28;20433;-71
2023/06/06 09:51:11;;;;;;;;;;;29.90;37.10;;;;;;5024278;28;20023;-71
2023/06/06 09:53:37;;;;;;;;;;;29.90;36.30;;;;;;5023824;28;20340;-70
2023/06/06 09:56:05;;;;;;;;;;;29.50;36.00;;;;;;5018178;28;19929;-70
2023/06/06 09:58:33;;;;;;;;;;;29.80;36.40;;;;;;5023065;28;20698;-71
2023/06/06 10:01:01;;;;;;;;;;;29.60;37.10;;;;;;5024280;28;19932;-71
2023/06/06 10:03:30;;;;;;;;;;;29.60;37.30;;;;;;5022074;28;20035;-70
2023/06/06 10:05:57;;;;;;;;;;;30.10;36.60;;;;;;5022063;28;19935;-71
2023/06/06 10:08:25;;;;;;;;;;;30.20;36.00;;;;;;5023091;28;19936;-71
2023/06/06 10:10:52;;;;;;;;;;;30.40;35.10;;;;;;5023273;28;19929;-71
2023/06/06 10:13:22;;;;;;;;;;;29.80;35.80;;;;;;5018053;28;19933;-71
2023/06/06 10:15:50;;;;;;;;;;;29.60;36.10;;;;;;5023315;28;20023;-70
2023/06/06 10:18:18;;;;;;;;;;;29.80;36.70;;;;;;5019548;28;20597;-70
2023/06/06 10:20:45;;;;;;;;;;;29.80;37.10;;;;;;5023607;28;19936;-70
2023/06/06 10:23:12;;;;;;;;;;;30.10;35.80;;;;;;5022057;28;19968;-70
2023/06/06 10:25:40;;;;;;;;;;;30.00;36.60;;;;;;5020881;28;20405;-71
2023/06/06 10:28:20;;;;;;;;;;;29.80;35.00;;;;;;5019580;28;19999;-70
2023/06/06 10:30:57;;;;;;;;;;;30.10;35.30;;;;;;5017858;28;20637;-70
2023/06/06 10:33:33;;;;;;;;;;;29.80;33.50;;;;;;5023105;28;19983;-70
2023/06/06 10:36:02;;;;;;;;;;;30.00;33.00;;;;;;5022610;28;19929;-70
2023/06/06 10:38:30;;;;;;;;;;;29.30;34.00;;;;;;5022023;28;19968;-71
2023/06/06 10:40:58;;;;;;;;;;;28.50;35.60;;;;;;5023624;28;20374;-70
2023/06/06 10:43:34;;;;;;;;;;;28.30;36.50;;;;;;5021842;28;19929;-71
2023/06/06 10:46:02;;;;;;;;;;;28.30;38.60;;;;;;5022133;28;20042;-71
2023/06/06 10:48:36;;;;;;;;;;;28.50;38.70;;;;;;5024997;28;19952;-71
2023/06/06 10:51:03;;;;;;;;;;;29.20;38.00;;;;;;5027494;28;19970;-70
2023/06/06 10:53:30;;;;;;;;;;;29.50;37.20;;;;;;5025682;28;19937;-70
2023/06/06 10:55:57;;;;;;;;;;;29.70;36.20;;;;;;5022111;28;20444;-70
2023/06/06 10:58:28;;;;;;;;;;;29.80;36.80;;;;;;5018036;28;19987;-70
2023/06/06 11:01:06;;;;;;;;;;;30.10;36.00;;;;;;5026572;28;20270;-70
2023/06/06 11:03:37;;;;;;;;;;;30.30;36.90;;;;;;5019943;28;19929;-70
2023/06/06 11:06:16;;;;;;;;;;;30.90;34.60;;;;;;5025098;28;19933;-70
2023/06/06 11:08:43;;;;;;;;;;;31.10;34.20;;;;;;5018919;28;19929;-71
2023/06/06 11:11:12;;;;;;;;;;;30.80;33.60;;;;;;5025992;28;19940;-70
2023/06/06 11:13:48;;;;;;;;;;;31.10;36.20;;;;;;5024689;28;19933;-71
2023/06/06 11:16:14;;;;;;;;;;;30.80;34.90;;;;;;5024428;28;20263;-71
2023/06/06 11:18:41;;;;;;;;;;;31.20;34.20;;;;;;5019342;28;19933;-70
2023/06/06 11:21:08;;;;;;;;;;;30.90;35.10;;;;;;5020895;28;19978;-70
2023/06/06 11:23:39;;;;;;;;;;;30.80;34.90;;;;;;5026203;28;20378;-70
2023/06/06 11:26:10;;;;;;;;;;;31.10;34.50;;;;;;5021244;28;19929;-70
2023/06/06 11:28:37;;;;;;;;;;;31.30;34.40;;;;;;5025705;28;20038;-71
2023/06/06 11:31:05;;;;;;;;;;;31.60;33.90;;;;;;5025973;28;19929;-71
2023/06/06 11:33:36;;;;;;;;;;;31.30;32.50;;;;;;5013166;28;20011;-71
2023/06/06 11:36:03;;;;;;;;;;;30.90;32.40;;;;;;5022043;28;19960;-71
2023/06/06 11:38:32;;;;;;;;;;;30.40;32.40;;;;;;5025385;28;19968;-70
2023/06/06 11:41:03;;;;;;;;;;;30.30;33.90;;;;;;5023181;28;19975;-71
2023/06/06 11:43:30;;;;;;;;;;;30.40;34.60;;;;;;5023936;28;19972;-70
2023/06/06 11:46:06;;;;;;;;;;;30.50;34.30;;;;;;5024885;28;20580;-71
2023/06/06 11:48:36;;;;;;;;;;;30.60;33.80;;;;;;5025571;28;19935;-70
2023/06/06 11:51:10;;;;;;;;;;;30.80;34.60;;;;;;5026058;28;20023;-70
2023/06/06 11:53:37;;;;;;;;;;;30.80;33.90;;;;;;5024470;28;19933;-70
2023/06/06 11:56:04;;;;;;;;;;;30.60;34.70;;;;;;5020593;28;19975;-70
2023/06/06 11:58:34;;;;;;;;;;;30.70;34.20;;;;;;5023101;28;19929;-70
2023/06/06 12:01:04;;;;;;;;;;;31.20;34.00;;;;;;5016853;28;19974;-70
2023/06/06 12:03:33;;;;;;;;;;;31.70;33.10;;;;;;5019075;28;20386;-71
2023/06/06 12:06:01;;;;;;;;;;;31.70;33.20;;;;;;5022073;28;19936;-70
2023/06/06 12:08:30;;;;;;;;;;;31.80;33.00;;;;;;5018809;28;20640;-70
2023/06/06 12:10:57;;;;;;;;;;;32.10;32.40;;;;;;5022466;28;19971;-70
2023/06/06 12:13:30;;;;;;;;;;;32.10;31.90;;;;;;5024772;28;19972;-70
2023/06/06 12:15:57;;;;;;;;;;;32.30;33.50;;;;;;5024771;28;20376;-71
2023/06/06 12:18:24;;;;;;;;;;;32.60;31.50;;;;;;5023980;28;20359;-71
2023/06/06 12:20:51;;;;;;;;;;;32.30;32.40;;;;;;5016582;28;20067;-70
2023/06/06 12:23:27;;;;;;;;;;;32.50;32.10;;;;;;5017774;28;19929;-70
2023/06/06 12:25:57;;;;;;;;;;;32.10;30.10;;;;;;5022084;28;19929;-70
2023/06/06 12:28:24;;;;;;;;;;;31.30;31.00;;;;;;5017263;28;19937;-71
2023/06/06 12:30:54;;;;;;;;;;;30.20;32.60;;;;;;5023904;28;19928;-70
2023/06/06 12:33:23;;;;;;;;;;;30.30;35.40;;;;;;5023284;28;20020;-71
2023/06/06 12:35:53;;;;;;;;;;;30.40;33.80;;;;;;5016435;28;19933;-70
2023/06/06 12:38:23;;;;;;;;;;;30.50;33.70;;;;;;5023620;28;20394;-71
2023/06/06 12:40:56;;;;;;;;;;;30.50;33.00;;;;;;5024607;28;19929;-70
2023/06/06 12:43:24;;;;;;;;;;;30.30;33.30;;;;;;5024567;28;20267;-70
2023/06/06 12:45:51;;;;;;;;;;;30.30;35.00;;;;;;5021354;28;20432;-70
2023/06/06 12:48:22;;;;;;;;;;;30.40;34.60;;;;;;5024413;28;19928;-70
2023/06/06 12:50:49;;;;;;;;;;;30.10;33.70;;;;;;5026853;28;19929;-70
2023/06/06 12:53:17;;;;;;;;;;;29.50;34.40;;;;;;5028010;28;19929;-70
2023/06/06 12:55:44;;;;;;;;;;;29.50;33.90;;;;;;5017456;28;20305;-70
2023/06/06 12:58:11;;;;;;;;;;;29.20;35.60;;;;;;5024712;28;19933;-70
2023/06/06 13:00:39;;;;;;;;;;;29.40;34.60;;;;;;5024470;28;20499;-71
2023/06/06 13:03:05;;;;;;;;;;;29.30;36.00;;;;;;5018718;28;20010;-70
2023/06/06 13:05:32;;;;;;;;;;;29.40;35.10;;;;;;5020180;28;19936;-70
2023/06/06 13:07:59;;;;;;;;;;;29.60;35.30;;;;;;5020218;28;19976;-70
2023/06/06 13:10:26;;;;;;;;;;;29.90;34.80;;;;;;5024012;28;19977;-70
2023/06/06 13:12:53;;;;;;;;;;;29.70;34.90;;;;;;5023232;28;20306;-70
2023/06/06 13:15:20;;;;;;;;;;;29.80;35.60;;;;;;5021854;28;19975;-70
2023/06/06 13:17:46;;;;;;;;;;;29.60;35.30;;;;;;5023795;28;19964;-70
2023/06/06 13:20:14;;;;;;;;;;;29.60;35.40;;;;;;5023175;28;19929;-70
2023/06/06 13:22:44;;;;;;;;;;;29.60;34.70;;;;;;5023884;28;19940;-70
2023/06/06 13:25:11;;;;;;;;;;;29.80;35.00;;;;;;5020260;28;19940;-70
2023/06/06 13:27:37;;;;;;;;;;;30.20;34.80;;;;;;5022372;28;20647;-70
2023/06/06 13:30:04;;;;;;;;;;;30.30;34.80;;;;;;5016197;28;19929;-70
2023/06/06 13:32:31;;;;;;;;;;;30.50;35.50;;;;;;5023758;28;19998;-70
2023/06/06 13:34:58;;;;;;;;;;;30.10;35.10;;;;;;5023038;28;20047;-70
2023/06/06 13:37:25;;;;;;;;;;;29.90;34.80;;;;;;5017660;28;19982;-70
2023/06/06 13:39:52;;;;;;;;;;;30.10;35.20;;;;;;5022634;28;19936;-70
2023/06/06 13:42:19;;;;;;;;;;;30.40;34.60;;;;;;5021993;28;19933;-70
2023/06/06 13:44:46;;;;;;;;;;;30.60;34.80;;;;;;5017455;28;19935;-70
2023/06/06 13:47:12;;;;;;;;;;;30.40;33.90;;;;;;5021768;28;20007;-70
2023/06/06 13:49:39;;;;;;;;;;;30.70;34.90;;;;;;5023368;28;19948;-70
2023/06/06 13:52:06;;;;;;;;;;;30.00;34.60;;;;;;5023629;28;19974;-70
2023/06/06 13:54:33;;;;;;;;;;;30.40;35.40;;;;;;5021291;28;20290;-71
2023/06/06 13:57:02;;;;;;;;;;;30.10;35.00;;;;;;5018633;28;19929;-71
2023/06/06 13:59:29;;;;;;;;;;;30.10;33.80;;;;;;5021275;28;20659;-70
2023/06/06 14:01:56;;;;;;;;;;;30.40;34.20;;;;;;5023412;28;19929;-70
2023/06/06 14:04:23;;;;;;;;;;;30.30;34.00;;;;;;5021596;28;19929;-70
2023/06/06 14:06:50;;;;;;;;;;;30.40;34.70;;;;;;5023147;28;19933;-70
2023/06/06 14:09:20;;;;;;;;;;;30.60;34.70;;;;;;5021994;28;20024;-70
2023/06/06 14:11:47;;;;;;;;;;;30.60;33.90;;;;;;5017786;28;20320;-71
2023/06/06 14:14:14;;;;;;;;;;;30.40;34.30;;;;;;5023217;28;20024;-70
2023/06/06 14:16:41;;;;;;;;;;;30.10;34.50;;;;;;5023069;28;20633;-70
2023/06/06 14:19:24;;;;;;;;;;;29.90;34.70;;;;;;5023459;28;19929;-70
2023/06/06 14:22:09;;;;;;;;;;;29.90;34.20;;;;;;5021413;28;20003;-71
2023/06/06 14:24:37;;;;;;;;;;;30.10;34.30;;;;;;5027071;28;20604;-71